Terminal Aerodrome Forecast
Issued by NWS

Home | Current Version | Previous Version | Text Only | Print | Product List | Glossary On
Versions: 1 2 3 4 5 6 7 8 9 10 11 12 13 14
000
FTAK31 PANC 260524
TAFAEN
TAF
PAEN 260524Z 2606/2706 16008KT P6SM VCSH FEW050 BKN070
      TEMPO 2606/2609 4SM -SHRA
     FM260900 15007KT P6SM -SHRA BKN040
      TEMPO 2609/2613 3SM SHRA BR BKN025
     FM261300 14005KT P6SM VCSH FEW060 BKN100
     FM262200 21012KT P6SM VCSH SCT050 BKN080=

USA.gov is the U.S. government's official web portal to all federal, state and local government web resources and services.